White Castle, Louisiana
Current Conditions -  °F | °C
As of 4:15 PM on Friday 24 Oct 2014 (Local Time) from KL38 Reporting Station
Clear Clear  
Wind Chill: 75°   Ceiling: Unl
Heat Index: 75°   Visibility: 10mi
Dew Point: 43°   Wind: 6mph
Humidity: 32%   Direction: 330°NNW
Pressure: 30.04"   Gusts: NA
Location:  30.17°N, 91.15°W
Report Text: KL38 242115Z AUTO 33005KT 10SM CLR 24/06 A3004 RMK AO2 T02400063
Loading
Personal Weather Stations






























Interactive Weather Map
Tropical Storm Tracking
New forecast layout! Learn more

10-Day Weather Forecast

Advertisements
Track Severe Weather on mobile